KBYI

Burley Municipal Airport

Burley, Idaho, USA
METAR KBYI 180153Z AUTO 14011KT 10SM CLR 24/08 A3014 RMK AO2 SLP170 T02440083
Observed Flight Rules
Aug-18 @ 01:53 UTC (37 minutes ago) Visual Flight Rules
Wind Visibility Clouds
140° at 11 knots 10 miles
  • Clear skies
Temperatures Readings
Current 24°C / 75°F
Dewpoint 8°C / 46°F
Humidity 36%
Altimeter 30.14" Hg
Pressure 1017 hPa
Elevation 1264
METAR KBYI 180153Z AUTO 14011KT 10SM CLR 24/08 A3014 RMK AO2 SLP170 T02440083
Observed Flight Rules
Aug-18 @ 01:53 UTC
(37 minutes ago)
VFR
Wind Visibility
140° at 11 knots 10 miles
Clouds
  • Clear skies
Temperature Dewpoint
24°C / 75°F 8°C / 46°F
Humidity Altimeter Pressure
36% 30.14" Hg 1017 hPa